createdAt,value
2022-08-17T00:00:40.310Z,60.88
2022-08-17T00:03:19.421Z,60.94
2022-08-17T00:05:54.513Z,61.05
2022-08-17T00:08:28.856Z,60.91
2022-08-17T00:11:00.918Z,62.80
2022-08-17T00:13:34.989Z,61.49
2022-08-17T00:16:09.638Z,61.45
2022-08-17T00:19:06.342Z,61.26
2022-08-17T00:22:29.971Z,61.37
2022-08-17T00:24:29.375Z,61.46
2022-08-17T00:27:01.999Z,61.53
2022-08-17T00:29:33.624Z,61.43
2022-08-17T00:33:12.432Z,61.36
2022-08-17T00:34:58.503Z,61.44
2022-08-17T00:37:30.235Z,61.43
2022-08-17T00:40:01.945Z,61.45
2022-08-17T00:42:33.829Z,61.47
2022-08-17T00:45:07.178Z,61.58
2022-08-17T00:47:38.987Z,61.70
2022-08-17T00:50:14.229Z,61.83
2022-08-17T00:52:52.107Z,61.78
2022-08-17T00:55:24.494Z,61.61
2022-08-17T00:57:59.706Z,61.94
2022-08-17T01:00:37.152Z,61.85
2022-08-17T01:03:13.376Z,61.85
2022-08-17T01:05:45.481Z,62.06
2022-08-17T01:08:20.675Z,62.05
2022-08-17T01:11:00.186Z,62.73
2022-08-17T01:13:41.006Z,62.81
2022-08-17T01:16:18.232Z,62.81
2022-08-17T01:18:53.224Z,63.23
2022-08-17T01:21:32.903Z,63.06
2022-08-17T01:24:05.614Z,62.95
2022-08-17T01:26:39.645Z,63.10
2022-08-17T01:29:12.770Z,63.32
2022-08-17T01:31:48.374Z,63.17
2022-08-17T01:34:22.347Z,63.32
2022-08-17T01:36:54.909Z,63.10
2022-08-17T01:39:31.608Z,63.09
2022-08-17T01:42:08.486Z,63.20
2022-08-17T01:44:42.817Z,63.17
2022-08-17T01:47:14.930Z,63.07
2022-08-17T01:49:46.610Z,63.21
2022-08-17T01:52:18.473Z,63.22
2022-08-17T01:54:52.511Z,63.35
2022-08-17T01:57:24.323Z,63.25
2022-08-17T01:59:56.262Z,63.41
2022-08-17T02:02:30.483Z,63.42
2022-08-17T02:05:03.141Z,63.37
2022-08-17T02:07:59.375Z,63.42
2022-08-17T02:10:33.702Z,63.38
2022-08-17T02:13:06.882Z,63.54
2022-08-17T02:15:38.739Z,63.57
2022-08-17T02:18:11.800Z,63.71
2022-08-17T02:20:44.207Z,63.65
2022-08-17T02:23:16.581Z,63.68
2022-08-17T02:25:49.028Z,63.73
2022-08-17T02:28:21.088Z,63.78
2022-08-17T02:31:01.353Z,63.91
2022-08-17T02:33:43.011Z,64.04
2022-08-17T02:36:14.055Z,64.48
2022-08-17T02:38:45.656Z,64.30
2022-08-17T02:41:17.597Z,64.47
2022-08-17T02:43:49.168Z,64.62
2022-08-17T02:46:20.900Z,64.68
2022-08-17T02:48:52.575Z,64.67
2022-08-17T02:51:24.227Z,64.66
2022-08-17T02:54:41.100Z,64.81
2022-08-17T02:56:47.575Z,64.73
2022-08-17T02:59:19.226Z,64.84
2022-08-17T03:01:51.222Z,64.75
2022-08-17T03:04:23.193Z,64.68
2022-08-17T03:06:54.853Z,64.72
2022-08-17T03:09:26.414Z,64.62
2022-08-17T03:12:04.321Z,64.71
2022-08-17T03:14:41.258Z,64.58
2022-08-17T03:17:13.860Z,64.78
2022-08-17T03:19:49.217Z,64.66
2022-08-17T03:22:47.939Z,64.68
2022-08-17T03:25:15.242Z,64.75
2022-08-17T03:27:51.658Z,64.81
2022-08-17T03:30:24.640Z,64.87
2022-08-17T03:32:59.635Z,64.88
2022-08-17T03:35:34.389Z,65.03
2022-08-17T03:38:06.543Z,65.05
2022-08-17T03:40:57.101Z,65.19
2022-08-17T03:43:33.760Z,65.24
2022-08-17T03:46:34.423Z,65.28
2022-08-17T03:49:27.485Z,65.20
2022-08-17T03:52:17.378Z,65.26
2022-08-17T03:55:18.404Z,65.07
2022-08-17T03:57:50.106Z,65.11
2022-08-17T04:00:21.999Z,65.11
2022-08-17T04:02:58.716Z,65.06
2022-08-17T04:05:30.444Z,65.14
2022-08-17T04:08:08.183Z,64.97
2022-08-17T04:10:44.962Z,65.01
2022-08-17T04:13:24.841Z,64.93
2022-08-17T04:15:57.460Z,65.01
2022-08-17T04:18:29.268Z,64.86
2022-08-17T04:21:01.258Z,64.85
2022-08-17T04:23:35.097Z,64.70
2022-08-17T04:26:06.990Z,64.69
2022-08-17T04:28:38.957Z,64.50
2022-08-17T04:31:10.849Z,64.47
2022-08-17T04:33:44.071Z,64.47
2022-08-17T04:36:16.905Z,64.13
2022-08-17T04:38:48.578Z,63.19
2022-08-17T04:41:37.733Z,61.52
2022-08-17T04:44:09.276Z,59.43
2022-08-17T04:46:41.451Z,57.92
2022-08-17T04:49:14.070Z,57.40
2022-08-17T04:51:56.164Z,57.17
2022-08-17T04:54:28.589Z,57.08
2022-08-17T04:57:00.482Z,57.11
2022-08-17T04:59:32.201Z,57.16
2022-08-17T05:02:03.920Z,57.11
2022-08-17T05:04:35.656Z,57.15
2022-08-17T05:07:08.005Z,57.04
2022-08-17T05:09:39.612Z,57.01
2022-08-17T05:12:11.574Z,57.51
2022-08-17T05:14:43.126Z,57.76
2022-08-17T05:17:14.778Z,57.96
2022-08-17T05:19:51.779Z,58.33
2022-08-17T05:22:23.701Z,58.61
2022-08-17T05:24:56.001Z,58.60
2022-08-17T05:27:34.436Z,58.64
2022-08-17T05:30:09.859Z,58.99
2022-08-17T05:32:56.669Z,59.08
2022-08-17T05:35:29.792Z,59.20
2022-08-17T05:38:02.005Z,59.43
2022-08-17T05:40:33.624Z,59.46
2022-08-17T05:43:10.609Z,59.60
2022-08-17T05:45:55.191Z,59.59
2022-08-17T05:48:39.072Z,59.68
2022-08-17T05:51:31.321Z,59.63
2022-08-17T05:54:18.861Z,59.90
2022-08-17T05:57:04.356Z,60.00
2022-08-17T05:59:46.417Z,60.26
2022-08-17T06:02:23.590Z,60.11
2022-08-17T06:05:10.814Z,60.24
2022-08-17T06:07:50.002Z,60.32
2022-08-17T06:10:29.462Z,60.69
2022-08-17T06:13:17.927Z,60.32
2022-08-17T06:16:00.406Z,60.38
2022-08-17T06:18:40.430Z,60.40
2022-08-17T06:21:18.359Z,60.37
2022-08-17T06:24:03.193Z,60.29
2022-08-17T06:26:43.054Z,60.50
2022-08-17T06:29:24.490Z,60.38
2022-08-17T06:31:56.314Z,60.41
2022-08-17T06:34:28.236Z,60.49
2022-08-17T06:37:15.477Z,60.58
2022-08-17T06:39:56.686Z,60.66
2022-08-17T06:42:54.943Z,60.63
2022-08-17T06:45:36.396Z,60.74
2022-08-17T06:48:16.372Z,61.03
2022-08-17T06:50:54.080Z,60.55
2022-08-17T06:53:30.077Z,60.29
2022-08-17T06:56:06.376Z,60.03
2022-08-17T06:58:40.435Z,59.86
2022-08-17T07:01:16.659Z,59.63
2022-08-17T07:03:55.029Z,59.33
2022-08-17T07:06:33.902Z,59.23
2022-08-17T07:09:15.941Z,59.17
2022-08-17T07:11:54.301Z,59.15
2022-08-17T07:14:36.898Z,58.79
2022-08-17T07:17:11.742Z,58.55
2022-08-17T07:19:46.483Z,58.18
2022-08-17T07:22:53.634Z,57.40
2022-08-17T07:25:25.737Z,56.77
2022-08-17T07:28:00.356Z,57.19
2022-08-17T07:30:37.173Z,56.46
2022-08-17T07:33:22.853Z,55.29
2022-08-17T07:35:54.917Z,55.94
2022-08-17T07:38:28.733Z,56.00
2022-08-17T07:41:06.389Z,54.28
2022-08-17T07:43:48.234Z,54.23
2022-08-17T07:46:40.363Z,54.42
2022-08-17T07:49:35.327Z,54.08
2022-08-17T07:52:47.292Z,53.81
2022-08-17T07:55:23.047Z,51.51
2022-08-17T07:58:00.265Z,50.38
2022-08-17T08:00:33.729Z,51.50
2022-08-17T08:03:27.332Z,51.09
2022-08-17T08:06:03.166Z,51.73
2022-08-17T08:08:38.971Z,52.20
2022-08-17T08:11:15.415Z,50.93
2022-08-17T08:13:50.006Z,50.76
2022-08-17T08:16:30.350Z,50.33
2022-08-17T08:19:03.520Z,49.97
2022-08-17T08:21:47.582Z,50.77
2022-08-17T08:24:36.597Z,50.18
2022-08-17T08:27:23.118Z,48.99
2022-08-17T08:29:58.289Z,49.17
2022-08-17T08:32:42.918Z,48.42
2022-08-17T08:35:26.787Z,47.93
2022-08-17T08:38:07.652Z,47.62
2022-08-17T08:40:57.457Z,47.75
2022-08-17T08:43:38.851Z,47.90
2022-08-17T08:46:20.070Z,46.36
2022-08-17T08:49:39.038Z,46.90
2022-08-17T08:52:28.353Z,46.45
2022-08-17T08:55:07.647Z,44.59
2022-08-17T08:57:47.149Z,45.34
2022-08-17T09:00:21.434Z,44.96
2022-08-17T09:03:49.705Z,44.61
2022-08-17T09:06:39.477Z,44.31
2022-08-17T09:09:21.453Z,44.83
2022-08-17T09:12:04.132Z,44.39
2022-08-17T09:14:45.256Z,45.74
2022-08-17T09:17:22.426Z,45.22
2022-08-17T09:20:00.096Z,42.88
2022-08-17T09:22:38.506Z,42.97
2022-08-17T09:25:13.389Z,42.93
2022-08-17T09:27:53.570Z,42.85
2022-08-17T09:30:23.861Z,41.60
2022-08-17T09:32:59.796Z,42.12
2022-08-17T09:35:39.623Z,38.92
2022-08-17T09:38:30.323Z,38.11
2022-08-17T09:41:13.678Z,39.18
2022-08-17T09:43:53.224Z,38.88
2022-08-17T09:46:31.153Z,39.48
2022-08-17T09:49:09.840Z,40.13
2022-08-17T09:51:48.215Z,38.16
2022-08-17T09:54:39.127Z,40.19
2022-08-17T09:57:30.409Z,40.00
2022-08-17T10:00:18.895Z,40.29
2022-08-17T10:03:11.958Z,36.52
2022-08-17T10:05:47.990Z,36.28
2022-08-17T10:08:32.572Z,36.59
2022-08-17T10:11:14.275Z,37.98
2022-08-17T10:13:53.485Z,37.40
2022-08-17T10:16:32.102Z,36.00
2022-08-17T10:19:11.558Z,37.27
2022-08-17T10:22:32.604Z,36.19
2022-08-17T10:25:22.935Z,36.80
2022-08-17T10:27:59.854Z,36.61
2022-08-17T10:30:35.882Z,36.52
2022-08-17T10:33:16.147Z,36.13
2022-08-17T10:35:53.598Z,35.86
2022-08-17T10:38:42.321Z,35.34
2022-08-17T10:41:34.730Z,34.54
2022-08-17T10:44:38.119Z,33.50
2022-08-17T10:47:11.520Z,32.90
2022-08-17T10:49:47.969Z,31.95
2022-08-17T10:52:51.915Z,33.08
2022-08-17T10:55:25.859Z,31.78
2022-08-17T10:58:24.630Z,31.85
2022-08-17T11:01:04.029Z,32.60
2022-08-17T11:03:36.095Z,31.59
2022-08-17T11:06:21.626Z,32.09
2022-08-17T11:09:24.500Z,32.01
2022-08-17T11:12:27.282Z,30.79
2022-08-17T11:15:15.934Z,29.87
2022-08-17T11:18:03.532Z,30.96
2022-08-17T11:21:04.838Z,31.51
2022-08-17T11:23:54.913Z,30.64
2022-08-17T11:26:29.819Z,30.16
2022-08-17T11:29:09.045Z,29.83
2022-08-17T11:31:44.176Z,28.79
2022-08-17T11:34:26.372Z,28.94
2022-08-17T11:37:38.668Z,28.76
2022-08-17T11:40:38.990Z,29.62
2022-08-17T11:43:46.299Z,29.86
2022-08-17T11:46:54.298Z,30.36
2022-08-17T11:50:11.522Z,29.64
2022-08-17T11:52:46.733Z,30.07
2022-08-17T11:55:50.742Z,29.80
2022-08-17T11:58:42.199Z,29.73
2022-08-17T12:01:16.254Z,29.23
2022-08-17T12:03:55.797Z,29.28
2022-08-17T12:06:41.241Z,28.93
2022-08-17T12:09:18.619Z,28.87
2022-08-17T12:12:13.319Z,28.56
2022-08-17T12:15:09.639Z,28.86
2022-08-17T12:17:48.500Z,28.69
2022-08-17T12:20:25.614Z,28.93
2022-08-17T12:23:07.680Z,28.85
2022-08-17T12:25:44.312Z,28.54
2022-08-17T12:28:26.858Z,27.06
2022-08-17T12:31:02.503Z,26.22
2022-08-17T12:33:36.706Z,26.75
2022-08-17T12:36:15.254Z,27.12
2022-08-17T12:38:53.738Z,27.96
2022-08-17T12:41:39.021Z,28.58
2022-08-17T12:44:16.750Z,29.02
2022-08-17T12:46:56.064Z,28.75
2022-08-17T12:49:31.828Z,28.73
2022-08-17T12:52:16.019Z,28.76
2022-08-17T12:54:54.652Z,29.21
2022-08-17T12:57:33.244Z,29.06
2022-08-17T13:00:17.821Z,28.92
2022-08-17T13:02:53.347Z,28.90
2022-08-17T13:05:28.813Z,29.14
2022-08-17T13:08:04.519Z,29.19
2022-08-17T13:10:37.888Z,29.35
2022-08-17T13:13:21.952Z,29.36
2022-08-17T13:15:57.234Z,29.09
2022-08-17T13:18:42.901Z,29.24
2022-08-17T13:21:30.804Z,29.01
2022-08-17T13:24:05.763Z,29.26
2022-08-17T13:26:40.414Z,29.02
2022-08-17T13:29:26.056Z,28.77
2022-08-17T13:32:16.325Z,28.63
2022-08-17T13:35:12.993Z,28.49
2022-08-17T13:38:01.421Z,28.63
2022-08-17T13:40:41.733Z,28.23
2022-08-17T13:43:13.636Z,28.04
2022-08-17T13:45:52.392Z,27.67
2022-08-17T13:48:28.364Z,28.34
2022-08-17T13:51:21.276Z,28.13
2022-08-17T13:53:57.782Z,28.09
2022-08-17T13:56:38.867Z,28.32
2022-08-17T13:59:14.325Z,28.27
2022-08-17T14:01:53.598Z,27.98
2022-08-17T14:04:28.066Z,27.60
2022-08-17T14:07:01.926Z,27.85
2022-08-17T14:09:37.705Z,28.33
2022-08-17T14:12:15.514Z,27.92
2022-08-17T14:14:47.763Z,28.48
2022-08-17T14:17:20.183Z,28.05
2022-08-17T14:19:52.358Z,28.62
2022-08-17T14:22:27.047Z,28.86
2022-08-17T14:24:59.708Z,29.35
2022-08-17T14:27:34.690Z,28.85
2022-08-17T14:30:26.987Z,29.22
2022-08-17T14:33:02.359Z,29.37
2022-08-17T14:35:34.545Z,29.33
2022-08-17T14:38:06.230Z,28.95
2022-08-17T14:40:39.287Z,29.00
2022-08-17T14:43:11.049Z,29.10
2022-08-17T14:45:42.608Z,28.81
2022-08-17T14:48:14.553Z,28.56
2022-08-17T14:50:46.428Z,28.67
2022-08-17T14:53:20.391Z,28.78
2022-08-17T14:55:53.651Z,29.03
2022-08-17T14:58:26.097Z,28.95
2022-08-17T15:00:58.238Z,28.95
2022-08-17T15:03:30.627Z,28.70
2022-08-17T15:06:02.815Z,28.75
2022-08-17T15:08:34.498Z,29.14
2022-08-17T15:11:07.076Z,29.27
2022-08-17T15:13:52.850Z,29.23
2022-08-17T15:16:24.787Z,29.42
2022-08-17T15:18:56.388Z,29.40
2022-08-17T15:21:28.077Z,29.60
2022-08-17T15:24:00.050Z,29.88
2022-08-17T15:26:31.789Z,29.62
2022-08-17T15:29:03.462Z,29.62
2022-08-17T15:31:35.606Z,29.96
2022-08-17T15:34:07.906Z,30.29
2022-08-17T15:36:40.665Z,30.61
2022-08-17T15:39:22.209Z,30.43
2022-08-17T15:41:58.385Z,30.49
2022-08-17T15:44:32.676Z,30.66
2022-08-17T15:47:06.976Z,30.77
2022-08-17T15:49:41.439Z,30.70
2022-08-17T15:52:21.722Z,30.95
2022-08-17T15:54:55.353Z,31.17
2022-08-17T15:57:28.256Z,31.45
2022-08-17T16:00:00.298Z,31.79
2022-08-17T16:03:44.795Z,31.82
2022-08-17T16:05:30.142Z,31.94
2022-08-17T16:08:03.202Z,31.98
2022-08-17T16:10:35.979Z,32.05
2022-08-17T16:13:17.765Z,32.09
2022-08-17T16:15:56.669Z,32.35
2022-08-17T16:18:31.763Z,32.21
2022-08-17T16:21:19.771Z,32.27
2022-08-17T16:23:53.708Z,32.19
2022-08-17T16:26:26.325Z,32.60
2022-08-17T16:29:00.773Z,32.31
2022-08-17T16:31:33.061Z,32.55
2022-08-17T16:34:16.838Z,32.79
2022-08-17T16:36:55.969Z,32.90
2022-08-17T16:39:30.862Z,32.80
2022-08-17T16:42:03.179Z,32.80
2022-08-17T16:44:35.032Z,32.83
2022-08-17T16:47:07.468Z,33.12
2022-08-17T16:49:39.502Z,33.16
2022-08-17T16:52:11.956Z,33.42
2022-08-17T16:54:47.165Z,33.13
2022-08-17T16:57:19.710Z,33.44
2022-08-17T16:59:51.703Z,33.02
2022-08-17T17:02:32.159Z,33.12
2022-08-17T17:05:08.303Z,33.15
2022-08-17T17:08:00.945Z,33.54
2022-08-17T17:10:38.847Z,33.49
2022-08-17T17:13:19.154Z,33.55
2022-08-17T17:15:58.595Z,33.76
2022-08-17T17:18:39.750Z,34.09
2022-08-17T17:21:17.628Z,34.26
2022-08-17T17:23:56.113Z,34.14
2022-08-17T17:26:49.439Z,34.23
2022-08-17T17:29:46.566Z,34.38
2022-08-17T17:32:29.702Z,34.67
2022-08-17T17:35:06.697Z,34.74
2022-08-17T17:37:39.198Z,34.94
2022-08-17T17:40:23.186Z,35.23
2022-08-17T17:43:14.237Z,35.38
2022-08-17T17:45:52.353Z,35.51
2022-08-17T17:48:24.358Z,35.87
2022-08-17T17:51:09.493Z,36.07
2022-08-17T17:53:52.246Z,36.16
2022-08-17T17:56:44.020Z,36.46
2022-08-17T17:59:26.779Z,36.66
2022-08-17T18:02:05.517Z,36.82
2022-08-17T18:04:46.471Z,36.93
2022-08-17T18:07:30.234Z,37.11
2022-08-17T18:10:29.885Z,37.08
2022-08-17T18:13:12.800Z,37.49
2022-08-17T18:15:51.540Z,37.79
2022-08-17T18:18:40.478Z,37.70
2022-08-17T18:21:17.007Z,38.04
2022-08-17T18:23:55.805Z,37.91
2022-08-17T18:26:50.306Z,38.16
2022-08-17T18:29:34.526Z,38.33
2022-08-17T18:32:28.044Z,38.38
2022-08-17T18:35:28.005Z,38.83
2022-08-17T18:38:20.440Z,38.98
2022-08-17T18:41:03.151Z,39.09
2022-08-17T18:43:52.716Z,39.13
2022-08-17T18:46:30.482Z,39.23
2022-08-17T18:49:05.401Z,39.70
2022-08-17T18:51:43.272Z,39.80
2022-08-17T18:54:21.377Z,40.01
2022-08-17T18:56:55.484Z,39.97
2022-08-17T18:59:36.619Z,40.09
2022-08-17T19:02:44.638Z,40.07
2022-08-17T19:05:32.094Z,40.22
2022-08-17T19:08:21.101Z,40.32
2022-08-17T19:10:56.882Z,40.63
2022-08-17T19:13:36.646Z,40.41
2022-08-17T19:16:15.758Z,40.62
2022-08-17T19:18:52.737Z,40.82
2022-08-17T19:21:28.605Z,40.89
2022-08-17T19:24:06.232Z,41.17
2022-08-17T19:26:53.927Z,41.17
2022-08-17T19:29:38.433Z,41.37
2022-08-17T19:32:12.479Z,41.65
2022-08-17T19:34:44.632Z,41.77
2022-08-17T19:37:36.613Z,41.74
2022-08-17T19:40:41.770Z,41.92
2022-08-17T19:43:22.046Z,42.11
2022-08-17T19:46:01.587Z,42.00
2022-08-17T19:48:47.081Z,42.39
2022-08-17T19:51:35.551Z,42.44
2022-08-17T19:54:14.365Z,42.68
2022-08-17T19:56:55.790Z,42.69
2022-08-17T19:59:46.525Z,42.69
2022-08-17T20:02:26.613Z,43.12
2022-08-17T20:05:02.938Z,43.12
2022-08-17T20:07:44.626Z,43.18
2022-08-17T20:10:34.253Z,43.03
2022-08-17T20:13:13.558Z,43.26
2022-08-17T20:15:46.938Z,43.28
2022-08-17T20:18:25.424Z,43.44
2022-08-17T20:21:03.769Z,43.46
2022-08-17T20:23:46.533Z,43.55
2022-08-17T20:26:23.205Z,43.79
2022-08-17T20:29:37.182Z,44.19
2022-08-17T20:32:27.970Z,44.20
2022-08-17T20:35:27.510Z,44.34
2022-08-17T20:38:02.346Z,44.61
2022-08-17T20:40:38.285Z,44.78
2022-08-17T20:43:45.057Z,45.00
2022-08-17T20:46:34.395Z,44.93
2022-08-17T20:49:27.961Z,45.17
2022-08-17T20:52:07.804Z,45.41
2022-08-17T20:54:53.006Z,45.50
2022-08-17T20:57:47.988Z,45.77
2022-08-17T21:00:45.738Z,45.89
2022-08-17T21:03:51.020Z,45.93
2022-08-17T21:06:26.141Z,45.97
2022-08-17T21:09:19.535Z,46.06
2022-08-17T21:12:05.576Z,46.05
2022-08-17T21:15:02.285Z,46.20
2022-08-17T21:17:49.975Z,46.16
2022-08-17T21:20:35.651Z,46.16
2022-08-17T21:23:32.950Z,46.23
2022-08-17T21:26:30.139Z,46.15
2022-08-17T21:29:29.879Z,46.20
2022-08-17T21:32:24.233Z,46.32
2022-08-17T21:35:28.677Z,46.23
2022-08-17T21:38:06.262Z,46.19
2022-08-17T21:40:38.337Z,46.47
2022-08-17T21:43:24.582Z,46.43
2022-08-17T21:46:04.614Z,46.59
2022-08-17T21:48:44.696Z,46.97
2022-08-17T21:51:22.051Z,46.85
2022-08-17T21:53:56.823Z,47.15
2022-08-17T21:56:32.857Z,47.32
2022-08-17T21:59:06.471Z,47.31
2022-08-17T22:01:40.928Z,47.35
2022-08-17T22:04:25.421Z,47.35
2022-08-17T22:06:58.960Z,47.21
2022-08-17T22:09:33.130Z,47.38
2022-08-17T22:12:11.434Z,47.59
2022-08-17T22:14:53.095Z,47.70
2022-08-17T22:17:27.909Z,47.82
2022-08-17T22:20:02.573Z,47.77
2022-08-17T22:22:59.947Z,47.77
2022-08-17T22:25:32.636Z,47.73
2022-08-17T22:28:06.539Z,47.99
2022-08-17T22:30:40.203Z,48.22
2022-08-17T22:33:38.602Z,48.33
2022-08-17T22:36:28.910Z,48.56
2022-08-17T22:39:23.242Z,48.42
2022-08-17T22:41:59.484Z,48.59
2022-08-17T22:44:35.701Z,48.59
2022-08-17T22:47:24.267Z,48.65
2022-08-17T22:49:58.985Z,48.93
2022-08-17T22:52:35.689Z,48.86
2022-08-17T22:55:32.694Z,48.86
2022-08-17T22:58:28.234Z,49.14
2022-08-17T23:01:28.344Z,49.25
2022-08-17T23:04:02.376Z,49.32
2022-08-17T23:06:35.461Z,49.50
2022-08-17T23:09:08.490Z,49.70
2022-08-17T23:11:49.979Z,49.54
2022-08-17T23:14:23.244Z,49.68
2022-08-17T23:16:54.952Z,49.71
2022-08-17T23:19:27.501Z,49.72
2022-08-17T23:22:00.645Z,49.81
2022-08-17T23:24:36.218Z,50.20
2022-08-17T23:27:07.873Z,50.13
2022-08-17T23:29:42.181Z,49.95
2022-08-17T23:32:16.373Z,50.05
2022-08-17T23:34:49.537Z,50.11
2022-08-17T23:37:21.769Z,50.24
2022-08-17T23:39:53.585Z,50.34
2022-08-17T23:42:25.535Z,50.25
2022-08-17T23:44:57.234Z,50.41
2022-08-17T23:47:29.115Z,50.18
2022-08-17T23:50:02.491Z,50.25
2022-08-17T23:52:36.968Z,50.30
2022-08-17T23:55:10.460Z,50.48
2022-08-17T23:57:42.722Z,50.61
